createdAt,value
2017-03-29T00:00:17.813Z,0
2017-03-29T00:00:58.267Z,0
2017-03-29T00:01:38.753Z,0
2017-03-29T00:04:11.780Z,0
2017-03-29T00:04:52.284Z,0
2017-03-29T00:05:32.756Z,0
2017-03-29T00:06:13.167Z,0
2017-03-29T00:06:53.600Z,0
2017-03-29T00:07:34.035Z,0
2017-03-29T00:09:46.808Z,0
2017-03-29T00:10:27.290Z,0
2017-03-29T00:11:07.741Z,0
2017-03-29T00:11:48.231Z,0
2017-03-29T00:12:28.634Z,0
2017-03-29T00:13:09.071Z,0
2017-03-29T00:13:49.550Z,0
2017-03-29T00:14:29.973Z,0
2017-03-29T00:15:10.415Z,0
2017-03-29T00:15:50.853Z,0
2017-03-29T00:16:31.313Z,0
2017-03-29T00:17:11.781Z,0
2017-03-29T00:17:52.222Z,0
2017-03-29T00:18:32.672Z,0
2017-03-29T00:19:13.121Z,0
2017-03-29T00:19:53.540Z,0
2017-03-29T00:20:33.945Z,0
2017-03-29T00:21:14.390Z,0
2017-03-29T00:23:42.347Z,0
2017-03-29T00:24:22.812Z,0
2017-03-29T00:25:03.268Z,0
2017-03-29T00:25:43.705Z,0
2017-03-29T00:26:24.156Z,0
2017-03-29T00:27:04.606Z,0
2017-03-29T00:27:45.046Z,0
2017-03-29T00:28:25.532Z,0
2017-03-29T00:29:06.006Z,0
2017-03-29T00:29:46.444Z,0
2017-03-29T00:30:26.890Z,0
2017-03-29T00:31:07.319Z,0
2017-03-29T00:31:47.741Z,0
2017-03-29T00:32:28.174Z,0
2017-03-29T00:33:08.640Z,0
2017-03-29T00:33:49.085Z,0
2017-03-29T00:34:29.541Z,0
2017-03-29T00:35:09.969Z,0
2017-03-29T00:35:50.405Z,0
2017-03-29T00:36:30.866Z,0
2017-03-29T00:37:11.305Z,0
2017-03-29T00:37:51.726Z,0
2017-03-29T00:38:32.163Z,0
2017-03-29T00:39:12.633Z,0
2017-03-29T00:39:53.077Z,0
2017-03-29T00:40:33.516Z,0
2017-03-29T00:41:13.957Z,0
2017-03-29T00:41:54.384Z,0
2017-03-29T00:44:27.403Z,0
2017-03-29T00:45:07.879Z,0
2017-03-29T00:45:48.347Z,0
2017-03-29T00:48:16.265Z,0
2017-03-29T00:48:56.763Z,0
2017-03-29T00:49:37.249Z,0
2017-03-29T00:50:17.711Z,0
2017-03-29T00:52:45.623Z,0
2017-03-29T00:53:26.103Z,0
2017-03-29T00:54:06.575Z,0
2017-03-29T00:54:46.984Z,0
2017-03-29T00:55:27.446Z,0
2017-03-29T00:57:40.180Z,0
2017-03-29T00:58:20.635Z,0
2017-03-29T00:59:01.102Z,0
2017-03-29T00:59:41.578Z,0
2017-03-29T01:00:22.014Z,0
2017-03-29T01:01:02.452Z,0
2017-03-29T01:03:30.356Z,0
2017-03-29T01:04:10.789Z,0
2017-03-29T01:04:51.234Z,0
2017-03-29T01:05:31.693Z,0
2017-03-29T01:07:59.640Z,0
2017-03-29T01:08:40.113Z,0
2017-03-29T01:09:20.567Z,0
2017-03-29T01:10:01.010Z,0
2017-03-29T01:10:41.429Z,0
2017-03-29T01:11:21.925Z,0
2017-03-29T01:13:54.962Z,0
2017-03-29T01:14:35.456Z,0
2017-03-29T01:15:15.934Z,0
2017-03-29T01:15:56.399Z,0
2017-03-29T01:16:36.858Z,0
2017-03-29T01:18:49.577Z,0
2017-03-29T01:19:30.008Z,0
2017-03-29T01:20:10.489Z,0
2017-03-29T01:20:50.913Z,0
2017-03-29T01:21:31.363Z,0
2017-03-29T01:22:11.823Z,0
2017-03-29T01:22:52.268Z,0
2017-03-29T01:23:32.738Z,0
2017-03-29T01:24:13.171Z,0
2017-03-29T01:24:53.689Z,0
2017-03-29T01:25:34.165Z,0
2017-03-29T01:26:14.606Z,0
2017-03-29T01:26:55.031Z,0
2017-03-29T01:29:28.041Z,0
2017-03-29T01:30:08.511Z,0
2017-03-29T01:30:49.020Z,0
2017-03-29T01:31:29.427Z,0
2017-03-29T01:32:09.941Z,0
2017-03-29T01:32:50.379Z,0
2017-03-29T01:33:30.820Z,0
2017-03-29T01:34:11.271Z,0
2017-03-29T01:34:51.722Z,0
2017-03-29T01:37:24.716Z,0
2017-03-29T01:38:05.140Z,0
2017-03-29T01:38:45.596Z,0
2017-03-29T01:39:26.016Z,0
2017-03-29T01:40:06.481Z,0
2017-03-29T01:42:24.279Z,0
2017-03-29T01:43:04.754Z,0
2017-03-29T01:43:45.200Z,0
2017-03-29T01:44:25.684Z,0
2017-03-29T01:45:06.119Z,0
2017-03-29T01:45:46.593Z,0
2017-03-29T01:46:27.007Z,0
2017-03-29T01:47:07.441Z,0
2017-03-29T01:47:47.896Z,0
2017-03-29T01:48:28.313Z,0
2017-03-29T01:50:41.004Z,0
2017-03-29T01:51:21.462Z,0
2017-03-29T01:52:01.906Z,0
2017-03-29T01:52:42.390Z,0
2017-03-29T01:53:22.839Z,0
2017-03-29T01:54:03.269Z,0
2017-03-29T01:54:43.704Z,0
2017-03-29T01:55:24.154Z,0
2017-03-29T01:56:04.558Z,0
2017-03-29T01:56:45.015Z,0
2017-03-29T01:57:25.493Z,0
2017-03-29T01:58:05.927Z,0
2017-03-29T01:58:46.363Z,0
2017-03-29T01:59:26.798Z,0
2017-03-29T02:00:07.256Z,0
2017-03-29T02:00:47.704Z,0
2017-03-29T02:01:28.129Z,0
2017-03-29T02:02:08.573Z,0
2017-03-29T02:02:49.008Z,0
2017-03-29T02:03:29.461Z,0
2017-03-29T02:04:09.872Z,0
2017-03-29T02:04:50.361Z,0
2017-03-29T02:05:30.839Z,0
2017-03-29T02:06:11.263Z,0
2017-03-29T02:06:51.751Z,0
2017-03-29T02:07:32.205Z,0
2017-03-29T02:08:12.656Z,0
2017-03-29T02:08:53.120Z,0
2017-03-29T02:09:33.612Z,0
2017-03-29T02:10:14.042Z,0
2017-03-29T02:10:54.485Z,0
2017-03-29T02:11:34.927Z,0
2017-03-29T02:12:15.349Z,0
2017-03-29T02:14:28.060Z,0
2017-03-29T02:15:08.562Z,0
2017-03-29T02:15:49.021Z,0
2017-03-29T02:16:29.461Z,0
2017-03-29T02:17:09.907Z,0
2017-03-29T02:17:50.363Z,0
2017-03-29T02:18:30.785Z,0
2017-03-29T02:19:11.219Z,0
2017-03-29T02:19:51.611Z,0
2017-03-29T02:20:32.059Z,0
2017-03-29T02:21:12.508Z,0
2017-03-29T02:21:52.919Z,0
2017-03-29T02:22:33.372Z,0
2017-03-29T02:23:13.861Z,0
2017-03-29T02:23:54.287Z,0
2017-03-29T02:24:34.739Z,0
2017-03-29T02:25:15.190Z,0
2017-03-29T02:25:55.673Z,0
2017-03-29T02:26:36.096Z,0
2017-03-29T02:27:16.535Z,0
2017-03-29T02:27:56.994Z,0
2017-03-29T02:28:37.440Z,0
2017-03-29T02:29:17.884Z,0
2017-03-29T02:29:58.339Z,0
2017-03-29T02:30:38.776Z,0
2017-03-29T02:31:19.258Z,0
2017-03-29T02:31:59.705Z,0
2017-03-29T02:32:40.156Z,0
2017-03-29T02:34:57.970Z,0
2017-03-29T02:35:38.427Z,0
2017-03-29T02:36:18.883Z,0
2017-03-29T02:36:59.315Z,0
2017-03-29T02:37:39.804Z,0
2017-03-29T02:38:20.242Z,0
2017-03-29T02:39:00.670Z,0
2017-03-29T02:39:41.133Z,0
2017-03-29T02:41:58.910Z,0
2017-03-29T02:42:39.367Z,0
2017-03-29T02:43:19.805Z,0
2017-03-29T02:44:00.245Z,0
2017-03-29T02:44:40.749Z,0
2017-03-29T02:45:21.168Z,0
2017-03-29T02:46:01.611Z,0
2017-03-29T02:46:42.039Z,0
2017-03-29T02:47:22.466Z,0
2017-03-29T02:48:02.912Z,0
2017-03-29T02:48:43.432Z,0
2017-03-29T02:51:01.178Z,0
2017-03-29T02:51:41.640Z,0
2017-03-29T02:52:22.065Z,0
2017-03-29T02:53:02.529Z,0
2017-03-29T02:53:42.944Z,0
2017-03-29T02:54:23.500Z,0
2017-03-29T02:55:03.977Z,0
2017-03-29T02:55:44.429Z,0
2017-03-29T02:56:24.879Z,0
2017-03-29T02:57:05.327Z,0
2017-03-29T02:59:33.300Z,0
2017-03-29T03:00:13.715Z,0
2017-03-29T03:00:54.183Z,0
2017-03-29T03:01:34.650Z,0
2017-03-29T03:02:15.092Z,0
2017-03-29T03:02:55.595Z,0
2017-03-29T03:03:36.025Z,0
2017-03-29T03:06:14.102Z,0
2017-03-29T03:06:54.562Z,0
2017-03-29T03:07:35.008Z,0
2017-03-29T03:08:15.488Z,0
2017-03-29T03:08:55.956Z,0
2017-03-29T03:09:36.407Z,0
2017-03-29T03:10:16.842Z,0
2017-03-29T03:10:57.327Z,0
2017-03-29T03:11:37.776Z,0
2017-03-29T03:12:18.264Z,0
2017-03-29T03:12:58.686Z,0
2017-03-29T03:13:39.153Z,0
2017-03-29T03:14:19.619Z,0
2017-03-29T03:15:00.074Z,0
2017-03-29T03:15:40.538Z,0
2017-03-29T03:16:20.980Z,0
2017-03-29T03:17:01.441Z,0
2017-03-29T03:17:41.893Z,0
2017-03-29T03:18:22.345Z,0
2017-03-29T03:19:02.769Z,0
2017-03-29T03:19:43.219Z,0
2017-03-29T03:20:23.662Z,0
2017-03-29T03:21:04.100Z,0
2017-03-29T03:21:44.553Z,0
2017-03-29T03:22:24.988Z,0
2017-03-29T03:23:05.458Z,0
2017-03-29T03:23:45.905Z,0
2017-03-29T03:24:26.365Z,0
2017-03-29T03:25:06.793Z,0
2017-03-29T03:25:47.233Z,0
2017-03-29T03:26:27.700Z,0
2017-03-29T03:28:55.601Z,0
2017-03-29T03:29:36.076Z,0
2017-03-29T03:30:16.524Z,0
2017-03-29T03:30:56.951Z,0
2017-03-29T03:31:37.388Z,0
2017-03-29T03:33:50.085Z,0
2017-03-29T03:34:30.529Z,0
2017-03-29T03:35:10.959Z,0
2017-03-29T03:35:51.433Z,0
2017-03-29T03:36:31.920Z,0
2017-03-29T03:37:12.368Z,0
2017-03-29T03:37:52.861Z,0
2017-03-29T03:38:33.270Z,0
2017-03-29T03:39:13.720Z,0
2017-03-29T03:41:31.507Z,0
2017-03-29T03:42:11.950Z,0
2017-03-29T03:42:52.365Z,0
2017-03-29T03:43:32.805Z,0
2017-03-29T03:44:13.268Z,0
2017-03-29T03:46:31.082Z,0
2017-03-29T03:47:11.562Z,0
2017-03-29T03:47:52.046Z,0
2017-03-29T03:48:32.509Z,0
2017-03-29T03:49:12.940Z,0
2017-03-29T03:49:53.380Z,0
2017-03-29T03:50:33.835Z,0
2017-03-29T03:51:14.339Z,0
2017-03-29T03:51:54.750Z,0
2017-03-29T03:52:35.205Z,0
2017-03-29T03:55:08.153Z,0
2017-03-29T03:55:48.637Z,0
2017-03-29T03:56:29.107Z,0
2017-03-29T03:57:09.521Z,0
2017-03-29T03:57:49.939Z,0
2017-03-29T03:58:30.386Z,0
2017-03-29T03:59:10.821Z,0
2017-03-29T03:59:51.253Z,0
2017-03-29T04:00:31.704Z,0
2017-03-29T04:01:12.149Z,0
2017-03-29T04:03:45.171Z,0
2017-03-29T04:04:25.602Z,0
2017-03-29T04:05:06.037Z,0
2017-03-29T04:05:46.459Z,0
2017-03-29T04:08:24.584Z,0
2017-03-29T04:09:05.101Z,0
2017-03-29T04:09:45.512Z,0
2017-03-29T04:12:13.415Z,0
2017-03-29T04:12:53.885Z,0
2017-03-29T04:13:34.331Z,0
2017-03-29T04:14:14.782Z,0
2017-03-29T04:14:55.292Z,0
2017-03-29T04:15:35.739Z,0
2017-03-29T04:16:16.166Z,0
2017-03-29T04:16:56.587Z,0
2017-03-29T04:17:37.060Z,0
2017-03-29T04:18:17.501Z,0
2017-03-29T04:18:57.990Z,0
2017-03-29T04:19:38.457Z,0
2017-03-29T04:20:18.946Z,0
2017-03-29T04:20:59.380Z,0
2017-03-29T04:21:39.818Z,0
2017-03-29T04:22:20.259Z,0
2017-03-29T04:23:00.696Z,0
2017-03-29T04:23:41.157Z,0
2017-03-29T04:24:21.565Z,0
2017-03-29T04:25:02.013Z,0
2017-03-29T04:25:42.422Z,0
2017-03-29T04:26:22.876Z,0
2017-03-29T04:27:03.341Z,0
2017-03-29T04:27:43.792Z,0
2017-03-29T04:28:24.245Z,0
2017-03-29T04:29:04.718Z,0
2017-03-29T04:31:42.807Z,0
2017-03-29T04:32:23.261Z,0
2017-03-29T04:33:03.717Z,0
2017-03-29T04:33:44.226Z,0
2017-03-29T04:34:24.642Z,0
2017-03-29T04:35:05.121Z,0
2017-03-29T04:35:45.548Z,0
2017-03-29T04:36:26.149Z,0
2017-03-29T04:37:06.641Z,0
2017-03-29T04:37:47.079Z,0
2017-03-29T04:38:27.546Z,0
2017-03-29T04:39:08.027Z,0
2017-03-29T04:39:48.530Z,0
2017-03-29T04:40:29.019Z,0
2017-03-29T04:41:09.471Z,0
2017-03-29T04:41:49.937Z,0
2017-03-29T04:42:30.355Z,0
2017-03-29T04:43:10.854Z,0
2017-03-29T04:43:51.249Z,0
2017-03-29T04:44:31.671Z,0
2017-03-29T04:45:12.130Z,0
2017-03-29T04:45:52.576Z,0
2017-03-29T04:46:32.998Z,0
2017-03-29T04:47:13.523Z,0
2017-03-29T04:47:53.937Z,0
2017-03-29T04:48:34.402Z,0
2017-03-29T04:49:14.848Z,0
2017-03-29T04:49:55.285Z,0
2017-03-29T04:50:35.757Z,0
2017-03-29T04:51:16.189Z,0
2017-03-29T04:53:44.111Z,0
2017-03-29T04:54:24.558Z,0
2017-03-29T04:55:05.033Z,0
2017-03-29T04:55:45.506Z,0
2017-03-29T04:56:25.929Z,0
2017-03-29T04:57:06.371Z,0
2017-03-29T04:57:46.796Z,0
2017-03-29T04:58:27.200Z,0
2017-03-29T04:59:07.666Z,0
2017-03-29T04:59:48.113Z,0
2017-03-29T05:00:28.589Z,0
2017-03-29T05:01:09.072Z,0
2017-03-29T05:01:49.530Z,0
2017-03-29T05:02:29.962Z,0
2017-03-29T05:04:57.897Z,5
2017-03-29T05:05:38.312Z,5
2017-03-29T05:06:18.804Z,5
2017-03-29T05:06:59.277Z,5
2017-03-29T05:07:39.734Z,5
2017-03-29T05:10:17.794Z,5
2017-03-29T05:10:58.255Z,5
2017-03-29T05:11:38.724Z,5
2017-03-29T05:12:19.201Z,10
2017-03-29T05:12:59.638Z,10
2017-03-29T05:13:40.062Z,10
2017-03-29T05:14:20.481Z,10
2017-03-29T05:15:00.966Z,10
2017-03-29T05:15:41.397Z,10
2017-03-29T05:16:21.821Z,10
2017-03-29T05:17:02.263Z,15
2017-03-29T05:17:42.722Z,15
2017-03-29T05:18:23.173Z,15
2017-03-29T05:19:03.639Z,15
2017-03-29T05:19:44.079Z,15
2017-03-29T05:20:24.482Z,15
2017-03-29T05:21:04.912Z,20
2017-03-29T05:21:45.375Z,20
2017-03-29T05:22:25.821Z,20
2017-03-29T05:23:06.303Z,20
2017-03-29T05:23:46.750Z,20
2017-03-29T05:24:27.188Z,20
2017-03-29T05:25:07.603Z,25
2017-03-29T05:25:48.065Z,25
2017-03-29T05:26:28.520Z,25
2017-03-29T05:29:01.581Z,30
2017-03-29T05:29:42.041Z,30
2017-03-29T05:30:22.537Z,30
2017-03-29T05:31:02.971Z,30
2017-03-29T05:33:41.014Z,35
2017-03-29T05:34:21.522Z,35
2017-03-29T05:35:01.981Z,40
2017-03-29T05:35:42.457Z,40
2017-03-29T05:38:10.399Z,45
2017-03-29T05:38:50.850Z,45
2017-03-29T05:39:31.329Z,45
2017-03-29T05:40:11.825Z,50
2017-03-29T05:40:52.327Z,50
2017-03-29T05:43:30.455Z,55
2017-03-29T05:44:10.894Z,55
2017-03-29T05:44:51.346Z,55
2017-03-29T05:45:31.784Z,55
2017-03-29T05:46:12.227Z,60
2017-03-29T05:48:24.901Z,65
2017-03-29T05:49:05.387Z,65
2017-03-29T05:49:45.804Z,70
2017-03-29T05:50:26.286Z,70
2017-03-29T05:51:06.719Z,75
2017-03-29T05:51:47.909Z,75
2017-03-29T05:52:28.264Z,75
2017-03-29T05:54:40.998Z,85
2017-03-29T05:55:21.514Z,85
2017-03-29T05:56:02.038Z,90
2017-03-29T05:56:42.516Z,90
2017-03-29T05:57:23.024Z,90
2017-03-29T05:58:03.514Z,95
2017-03-29T05:58:43.985Z,95
2017-03-29T05:59:24.462Z,95
2017-03-29T06:00:04.985Z,100
2017-03-29T06:00:45.415Z,100
2017-03-29T06:01:25.894Z,100
2017-03-29T06:02:06.388Z,100
2017-03-29T06:02:46.823Z,105
2017-03-29T06:05:19.830Z,110
2017-03-29T06:06:00.318Z,115
2017-03-29T06:06:40.767Z,115
2017-03-29T06:07:21.365Z,125
2017-03-29T06:08:01.808Z,120
2017-03-29T06:08:42.323Z,125
2017-03-29T06:11:00.150Z,130
2017-03-29T06:11:40.623Z,130
2017-03-29T06:12:21.104Z,135
2017-03-29T06:13:01.571Z,135
2017-03-29T06:13:42.036Z,135
2017-03-29T06:14:22.489Z,125
2017-03-29T06:15:02.964Z,115
2017-03-29T06:15:43.417Z,110
2017-03-29T06:16:23.908Z,110
2017-03-29T06:17:04.367Z,110
2017-03-29T06:17:44.812Z,115
2017-03-29T06:18:25.245Z,115
2017-03-29T06:19:05.731Z,115
2017-03-29T06:19:46.148Z,115
2017-03-29T06:20:26.604Z,115
2017-03-29T06:21:07.037Z,115
2017-03-29T06:21:47.460Z,115
2017-03-29T06:22:27.938Z,115
2017-03-29T06:23:08.392Z,115
2017-03-29T06:23:48.841Z,115
2017-03-29T06:26:27.076Z,120
2017-03-29T06:27:07.559Z,120
2017-03-29T06:27:48.074Z,120
2017-03-29T06:28:28.560Z,125
2017-03-29T06:29:09.043Z,130
2017-03-29T06:29:49.587Z,130
2017-03-29T06:30:30.033Z,130
2017-03-29T06:31:10.503Z,125
2017-03-29T06:31:50.960Z,125
2017-03-29T06:32:31.581Z,125
2017-03-29T06:33:12.046Z,125
2017-03-29T06:33:52.490Z,125
2017-03-29T06:34:32.960Z,130
2017-03-29T06:35:13.384Z,130
2017-03-29T06:35:53.827Z,130
2017-03-29T06:36:34.277Z,135
2017-03-29T06:37:14.706Z,135
2017-03-29T06:39:32.508Z,135
2017-03-29T06:40:13.062Z,135
2017-03-29T06:40:53.512Z,135
2017-03-29T06:41:34.021Z,135
2017-03-29T06:42:14.517Z,135
2017-03-29T06:42:54.984Z,140
2017-03-29T06:43:35.477Z,140
2017-03-29T06:44:15.962Z,140
2017-03-29T06:44:56.417Z,140
2017-03-29T06:45:36.871Z,140
2017-03-29T06:46:17.335Z,140
2017-03-29T06:46:57.781Z,140
2017-03-29T06:47:38.251Z,140
2017-03-29T06:48:18.745Z,140
2017-03-29T06:48:59.173Z,140
2017-03-29T06:49:39.618Z,145
2017-03-29T06:50:20.059Z,145
2017-03-29T06:51:00.503Z,145
2017-03-29T06:51:40.987Z,145
2017-03-29T06:52:21.445Z,145
2017-03-29T06:53:02.028Z,145
2017-03-29T06:53:42.469Z,145
2017-03-29T06:56:15.760Z,150
2017-03-29T06:56:56.047Z,155
2017-03-29T06:57:36.811Z,155
2017-03-29T06:58:17.401Z,155
2017-03-29T06:58:57.899Z,155
2017-03-29T06:59:38.570Z,160
2017-03-29T07:00:19.074Z,160
2017-03-29T07:00:59.576Z,165
2017-03-29T07:01:40.062Z,165
2017-03-29T07:02:20.689Z,170
2017-03-29T07:03:01.548Z,170
2017-03-29T07:03:42.158Z,185
2017-03-29T07:04:22.809Z,230
2017-03-29T07:05:03.400Z,270
2017-03-29T07:05:44.013Z,300
2017-03-29T07:06:24.595Z,310
2017-03-29T07:07:05.064Z,310
2017-03-29T07:07:45.607Z,310
2017-03-29T07:08:26.122Z,315
2017-03-29T07:09:06.672Z,315
2017-03-29T07:09:47.163Z,320
2017-03-29T07:10:27.645Z,320
2017-03-29T07:11:08.122Z,325
2017-03-29T07:11:48.638Z,330
2017-03-29T07:12:29.095Z,335
2017-03-29T07:14:41.870Z,355
2017-03-29T07:15:22.352Z,360
2017-03-29T07:16:02.876Z,360
2017-03-29T07:16:43.365Z,365
2017-03-29T07:17:23.871Z,365
2017-03-29T07:18:04.367Z,365
2017-03-29T07:18:44.840Z,365
2017-03-29T07:19:25.294Z,370
2017-03-29T07:20:05.839Z,370
2017-03-29T07:20:46.244Z,370
2017-03-29T07:21:26.693Z,375
2017-03-29T07:22:07.149Z,380
2017-03-29T07:22:47.658Z,385
2017-03-29T07:23:28.134Z,390
2017-03-29T07:24:08.610Z,390
2017-03-29T07:24:49.051Z,395
2017-03-29T07:25:29.485Z,395
2017-03-29T07:26:09.931Z,395
2017-03-29T07:26:50.361Z,395
2017-03-29T07:27:30.798Z,390
2017-03-29T07:28:11.268Z,395
2017-03-29T07:28:51.716Z,400
2017-03-29T07:29:32.157Z,400
2017-03-29T07:30:12.636Z,405
2017-03-29T07:30:53.100Z,410
2017-03-29T07:31:33.543Z,410
2017-03-29T07:32:14.063Z,415
2017-03-29T07:32:54.571Z,420
2017-03-29T07:33:35.019Z,425
2017-03-29T07:34:15.502Z,425
2017-03-29T07:34:55.940Z,425
2017-03-29T07:35:36.427Z,430
2017-03-29T07:38:14.549Z,445
2017-03-29T07:38:55.009Z,450
2017-03-29T07:39:35.458Z,450
2017-03-29T07:40:15.926Z,455
2017-03-29T07:42:33.744Z,480
2017-03-29T07:43:14.263Z,485
2017-03-29T07:43:54.712Z,485
2017-03-29T07:44:35.237Z,485
2017-03-29T07:45:15.672Z,480
2017-03-29T07:45:56.138Z,480
2017-03-29T07:46:36.613Z,485
2017-03-29T07:47:17.045Z,480
2017-03-29T07:47:57.518Z,485
2017-03-29T07:48:37.963Z,485
2017-03-29T07:49:18.384Z,490
2017-03-29T07:49:58.807Z,495
2017-03-29T07:50:39.259Z,505
2017-03-29T07:51:19.714Z,505
2017-03-29T07:52:00.156Z,505
2017-03-29T07:52:40.637Z,510
2017-03-29T07:55:08.624Z,515
2017-03-29T07:55:49.072Z,510
2017-03-29T07:58:06.919Z,515
2017-03-29T07:58:47.445Z,520
2017-03-29T07:59:27.857Z,525
2017-03-29T08:00:08.303Z,525
2017-03-29T08:00:48.819Z,535
2017-03-29T08:01:29.293Z,535
2017-03-29T08:02:10.480Z,525
2017-03-29T08:02:50.931Z,525
2017-03-29T08:06:52.314Z,535
2017-03-29T08:07:32.794Z,530
2017-03-29T08:08:13.277Z,525
2017-03-29T08:08:53.783Z,510
2017-03-29T08:09:34.292Z,505
2017-03-29T08:10:14.924Z,505
2017-03-29T08:10:55.479Z,500
2017-03-29T08:11:35.949Z,495
2017-03-29T08:14:03.917Z,500
2017-03-29T08:14:44.407Z,505
2017-03-29T08:15:24.864Z,500
2017-03-29T08:16:05.298Z,505
2017-03-29T08:16:45.776Z,500
2017-03-29T08:19:23.882Z,485
2017-03-29T08:20:04.328Z,485
2017-03-29T08:20:44.810Z,485
2017-03-29T08:21:25.308Z,480
2017-03-29T08:22:05.844Z,480
2017-03-29T08:22:46.339Z,480
2017-03-29T08:25:19.476Z,480
2017-03-29T08:25:59.926Z,480
2017-03-29T08:26:40.418Z,480
2017-03-29T08:28:58.255Z,470
2017-03-29T08:29:38.733Z,465
2017-03-29T08:30:19.234Z,470
2017-03-29T08:30:59.758Z,475
2017-03-29T08:31:40.249Z,475
2017-03-29T08:32:20.711Z,480
2017-03-29T08:33:01.194Z,470
2017-03-29T08:33:41.630Z,490
2017-03-29T08:34:22.114Z,480
2017-03-29T08:38:27.494Z,490
2017-03-29T08:39:07.947Z,485
2017-03-29T08:41:35.931Z,495
2017-03-29T08:42:16.393Z,495
2017-03-29T08:44:49.450Z,495
2017-03-29T08:45:29.961Z,495
2017-03-29T08:46:10.401Z,505
2017-03-29T08:46:50.848Z,505
2017-03-29T08:47:31.286Z,510
2017-03-29T08:48:11.734Z,515
2017-03-29T08:48:52.191Z,510
2017-03-29T08:49:32.670Z,515
2017-03-29T08:50:13.130Z,515
2017-03-29T08:52:30.960Z,515
2017-03-29T08:53:11.416Z,520
2017-03-29T08:53:51.884Z,530
2017-03-29T08:54:32.338Z,535
2017-03-29T08:55:12.835Z,545
2017-03-29T08:57:40.849Z,535
2017-03-29T08:58:21.411Z,520
2017-03-29T08:59:03.353Z,525
2017-03-29T08:59:43.889Z,525
2017-03-29T09:00:24.334Z,525
2017-03-29T09:01:04.809Z,525
2017-03-29T09:01:45.244Z,520
2017-03-29T09:03:58.002Z,540
2017-03-29T09:04:38.596Z,535
2017-03-29T09:05:19.104Z,555
2017-03-29T09:05:59.560Z,555
2017-03-29T09:06:40.156Z,550
2017-03-29T09:07:20.602Z,555
2017-03-29T09:08:01.053Z,565
2017-03-29T09:08:41.514Z,570
2017-03-29T09:09:21.967Z,570
2017-03-29T09:10:02.478Z,570
2017-03-29T09:10:43.033Z,560
2017-03-29T09:11:23.502Z,560
2017-03-29T09:12:03.994Z,570
2017-03-29T09:12:44.505Z,575
2017-03-29T09:13:24.922Z,570
2017-03-29T09:14:05.382Z,565
2017-03-29T09:14:45.823Z,565
2017-03-29T09:17:18.894Z,535
2017-03-29T09:17:59.460Z,520
2017-03-29T09:18:40.005Z,520
2017-03-29T09:19:20.497Z,530
2017-03-29T09:20:01.002Z,520
2017-03-29T09:20:41.461Z,520
2017-03-29T09:21:21.922Z,515
2017-03-29T09:22:02.384Z,510
2017-03-29T09:22:42.829Z,500
2017-03-29T09:23:23.301Z,500
2017-03-29T09:24:03.757Z,505
2017-03-29T09:24:44.212Z,500
2017-03-29T09:25:24.672Z,490
2017-03-29T09:26:05.142Z,490
2017-03-29T09:26:45.667Z,500
2017-03-29T09:27:26.102Z,505
2017-03-29T09:29:59.173Z,500
2017-03-29T09:30:39.688Z,520
2017-03-29T09:31:20.135Z,540
2017-03-29T09:32:00.581Z,530
2017-03-29T09:32:41.215Z,565
2017-03-29T09:33:21.627Z,600
2017-03-29T09:34:02.093Z,645
2017-03-29T09:34:42.548Z,695
2017-03-29T09:35:23.053Z,690
2017-03-29T09:38:01.191Z,675
2017-03-29T09:38:41.652Z,650
2017-03-29T09:39:22.123Z,630
2017-03-29T09:40:02.548Z,630
2017-03-29T09:40:42.999Z,650
2017-03-29T09:41:23.523Z,660
2017-03-29T09:42:04.033Z,650
2017-03-29T09:42:44.536Z,665
2017-03-29T09:43:24.994Z,660
2017-03-29T09:44:05.491Z,655
2017-03-29T09:44:45.974Z,665
2017-03-29T09:45:27.136Z,680
2017-03-29T09:46:07.647Z,655
2017-03-29T09:46:48.120Z,645
2017-03-29T09:47:28.602Z,655
2017-03-29T09:48:09.043Z,655
2017-03-29T09:48:49.589Z,645
2017-03-29T09:49:30.032Z,625
2017-03-29T09:50:10.482Z,640
2017-03-29T09:50:50.919Z,670
2017-03-29T09:51:31.367Z,670
2017-03-29T09:52:11.788Z,665
2017-03-29T09:52:52.234Z,660
2017-03-29T09:55:25.267Z,630
2017-03-29T09:56:05.721Z,620
2017-03-29T09:56:46.332Z,620
2017-03-29T09:57:26.820Z,620
2017-03-29T09:58:08.257Z,630
2017-03-29T09:58:48.735Z,645
2017-03-29T09:59:29.205Z,650
2017-03-29T10:00:09.661Z,635
2017-03-29T10:00:50.114Z,625
2017-03-29T10:01:30.549Z,630
2017-03-29T10:02:11.115Z,630
2017-03-29T10:02:51.633Z,605
2017-03-29T10:03:32.087Z,595
2017-03-29T10:04:12.536Z,605
2017-03-29T10:04:53.016Z,595
2017-03-29T10:05:33.475Z,630
2017-03-29T10:08:01.385Z,560
2017-03-29T10:08:41.868Z,545
2017-03-29T10:09:22.345Z,545
2017-03-29T10:10:02.832Z,550
2017-03-29T10:10:43.311Z,390
2017-03-29T10:11:23.801Z,400
2017-03-29T10:12:04.318Z,435
2017-03-29T10:12:44.802Z,570
2017-03-29T10:13:25.263Z,610
2017-03-29T10:15:58.296Z,620
2017-03-29T10:16:38.798Z,650
2017-03-29T10:17:19.256Z,495
2017-03-29T10:17:59.751Z,635
2017-03-29T10:18:40.218Z,630
2017-03-29T10:19:20.658Z,455
2017-03-29T10:20:01.174Z,425
2017-03-29T10:20:41.652Z,470
2017-03-29T10:21:22.131Z,310
2017-03-29T10:22:02.549Z,285
2017-03-29T10:22:43.043Z,285
2017-03-29T10:23:23.504Z,300
2017-03-29T10:24:04.000Z,345
2017-03-29T10:24:44.475Z,630
2017-03-29T10:25:24.941Z,665
2017-03-29T10:26:05.430Z,645
2017-03-29T10:26:45.892Z,710
2017-03-29T10:27:26.341Z,375
2017-03-29T10:28:06.847Z,365
2017-03-29T10:28:47.355Z,395
2017-03-29T10:29:27.883Z,435
2017-03-29T10:30:08.346Z,650
2017-03-29T10:30:48.811Z,840
2017-03-29T10:31:29.317Z,780
2017-03-29T10:32:09.792Z,800
2017-03-29T10:32:50.312Z,375
2017-03-29T10:33:30.779Z,385
2017-03-29T10:34:11.910Z,340
2017-03-29T10:34:52.376Z,400
2017-03-29T10:35:32.874Z,355
2017-03-29T10:36:13.354Z,640
2017-03-29T10:36:53.797Z,840
2017-03-29T10:37:34.250Z,735
2017-03-29T10:38:14.710Z,805
2017-03-29T10:38:55.167Z,820
2017-03-29T10:39:35.619Z,550
2017-03-29T10:40:16.042Z,655
2017-03-29T10:40:56.539Z,830
2017-03-29T10:41:37.029Z,835
2017-03-29T10:42:17.504Z,860
2017-03-29T10:42:58.025Z,895
2017-03-29T10:43:38.545Z,925
2017-03-29T10:44:18.992Z,560
2017-03-29T10:44:59.453Z,570
2017-03-29T10:45:39.989Z,930
2017-03-29T10:48:13.033Z,860
2017-03-29T10:48:53.536Z,680
2017-03-29T10:49:33.999Z,910
2017-03-29T10:50:15.231Z,865
2017-03-29T10:50:55.659Z,780
2017-03-29T10:51:36.125Z,350
2017-03-29T10:52:16.585Z,330
2017-03-29T10:52:57.105Z,325
2017-03-29T10:55:30.201Z,875
2017-03-29T10:56:10.687Z,865
2017-03-29T10:58:48.844Z,890
2017-03-29T11:01:27.041Z,875
2017-03-29T11:02:07.518Z,885
2017-03-29T11:02:47.978Z,910
2017-03-29T11:03:28.484Z,905
2017-03-29T11:04:08.999Z,925
2017-03-29T11:04:49.479Z,910
2017-03-29T11:05:29.973Z,910
2017-03-29T11:06:10.439Z,900
2017-03-29T11:06:50.898Z,905
2017-03-29T11:07:31.411Z,895
2017-03-29T11:08:11.870Z,850
2017-03-29T11:08:52.337Z,840
2017-03-29T11:09:32.840Z,840
2017-03-29T11:10:13.297Z,810
2017-03-29T11:10:53.798Z,810
2017-03-29T11:11:34.286Z,845
2017-03-29T11:12:14.745Z,835
2017-03-29T11:14:27.498Z,790
2017-03-29T11:15:08.024Z,805
2017-03-29T11:15:48.527Z,810
2017-03-29T11:16:29.047Z,805
2017-03-29T11:17:09.550Z,780
2017-03-29T11:17:50.095Z,820
2017-03-29T11:18:30.657Z,760
2017-03-29T11:19:11.149Z,830
2017-03-29T11:19:51.699Z,815
2017-03-29T11:20:32.202Z,845
2017-03-29T11:21:12.802Z,845
2017-03-29T11:21:53.362Z,860
2017-03-29T11:22:33.862Z,810
2017-03-29T11:23:14.435Z,805
2017-03-29T11:23:55.019Z,795
2017-03-29T11:24:35.560Z,785
2017-03-29T11:25:16.038Z,810
2017-03-29T11:25:56.593Z,665
2017-03-29T11:26:37.248Z,640
2017-03-29T11:27:17.792Z,410
2017-03-29T11:27:58.323Z,475
2017-03-29T11:28:38.874Z,780
2017-03-29T11:29:19.447Z,795
2017-03-29T11:30:00.069Z,805
2017-03-29T11:30:40.588Z,805
2017-03-29T11:31:21.102Z,810
2017-03-29T11:32:01.635Z,800
2017-03-29T11:32:42.123Z,785
2017-03-29T11:33:22.640Z,745
2017-03-29T11:34:03.184Z,725
2017-03-29T11:34:43.648Z,710
2017-03-29T11:35:24.125Z,705
2017-03-29T11:36:04.623Z,695
2017-03-29T11:36:45.161Z,715
2017-03-29T11:37:25.605Z,710
2017-03-29T11:38:06.097Z,760
2017-03-29T11:38:46.568Z,765
2017-03-29T11:41:25.597Z,740
2017-03-29T11:42:06.172Z,780
2017-03-29T11:42:46.706Z,460
2017-03-29T11:43:27.317Z,590
2017-03-29T11:44:07.856Z,750
2017-03-29T11:44:48.374Z,750
2017-03-29T11:45:28.841Z,720
2017-03-29T11:46:09.325Z,695
2017-03-29T11:46:49.870Z,665